Jamestown, TN

5:10 PM CST on November 12, 2019 (GMT -0600)
Ridgetop Acres | | Change Station

Elev 1580 ft 36.45 °N, 84.85 °W | Updated 10 minutes ago

Overcast
Overcast
18.6 °F
Feels Like 13 °F
N
4
Wind Variable Wind from North
Gusts 0.0 mph

Today
High -- | Low -- °F
--% Chance of Precip.
Yesterday
High -- | Low -- °F
Precip. -- in
Pressure 30.37 in
Visibility 7.0 miles
Clouds Overcast 1900 ft
Windchill 13 °F
Dew Point 13 °F
Humidity 78%
Rainfall 0.00 in
Snow Depth Not available.
6:13 AM 4:33 PM
Full, 100% visible
METAR KCSV 122253Z AUTO 34008KT 7SM OVC019 M08/M12 A3030 RMK AO2 SNE01 SLP282 P0000 T10781117
Pressure 30.37 in
Visibility 7.0 miles
Clouds Overcast 1900 ft
Windchill 13 °F
Dew Point 13 °F
Humidity 78%
Rainfall 0.00 in
Snow Depth Not available.
6:13 AM 4:33 PM
Full, 100% visible
METAR KCSV 122253Z AUTO 34008KT 7SM OVC019 M08/M12 A3030 RMK AO2 SNE01 SLP282 P0000 T10781117

Get Severe Weather Alerts

Thanks for signing up!

Be on the lookout for a verification email in your inbox.

You'll start receiving the daily forecast at 6 AM.

×

10-Day Weather Forecast

Almanac

Astronomy

Nov. 12, 2019 Rise Set
Actual Time
Civil Twilight
Nautical Twilight
Astronomical Twilight
Moon
Length of Visible Light
Length of Day
Tomorrow will be .
, % of the Moon is Illuminated

Today's Extremes

State Highs State Lows

Community

WunderPhotos

Category 6

Welcome to Category 6. This is the collective home for Weather Underground's featured writeups by Dr. Jeff Masters (right), Bob Henson (left), Chris Burt, and other regular contributors.

Nearby

Air Quality

  Air Quality AQ Index Pollutant
Not available.

Snow Depth

Station Depth Elevation

Earthquake Activity

City Distance Mag. Time & Date
Minimum magnitude displayed is 2.5.

Coastal Water Temperatures

Place Temperature

Stations

Nearby Weather Stations

Station Location Temp. Windchill Dew Point Humidity Wind Precip. Elev Updated Type
                   

Watches & Warnings

There are currently no watches in effect.